Portada
METAR-TAF:

METAR-TAF

Aeroports :

Aeroport Internacional Diori Hamani

Niamey, Níger

latitud: 13-29N, longitud: 002-10E, altitud: 223 m

Observació

L'informe es va fer fa 37 minuts, a les 04:00 UTC
Vent 3 kt del Nord/Nord-Est
Temperatura 19°C
Humitat 13%
Pressió 1013 hPa
Visibilitat 10 km o més
sense núvols per sota de 1500 mi sense presència de cumulonimbus.

METAR: DRRN 290400Z 03003KT CAVOK 19/M10 Q1013

Hora: 05:37 (04:37 UTC)

Pronòstic

L'informe es va fer fa 5 hores i 37 minuts, a les 23:00 UTC
Pronòstic vàlid del 29 a les 00 UTC al 30 a les 06 UTC
Vent 8 kt del Est
Visibilitat: 6000 m
Temporalment
l' 29 a les 06 UTC al 29 a les 10 UTC
Visibilitat: 3000 m
Pols estès
Temporalment
l' 29 a les 10 UTC al 29 a les 14 UTC
Vent 18 kt del Est
Temporalment
l' 29 a les 18 UTC al 29 a les 20 UTC
Visibilitat: 4000 m
Pols estès

TAF: DRRN 282300Z 2900/3006 08008KT 6000 NSC TEMPO 2906/2910 3000 DU TEMPO 2910/2914 10018KT TEMPO 2918/2920 4000 DU

Observacions i pronòstics meteorològics de més de 4000 aeroports (METAR i TAF).

Les estacions disponibles són els punts grocs i vermells al mapa.

Posi el ratolí al punt desitjat per veure el nom de l'estació.

Feu clic per veure les observacions i els pronòstics meteorològics.

Per canviar el mapa: feu clic els botons verds amb una creu de color negre per apropar; al botó verd amb un guió per allunyar la imatge; o en les fletxes verdes per a mapes adjacents.


METAR-TAF: